Time;durP1;ratioP1;P1;durP2;ratioP2;P2;SDS_P1;SDS_P2;PMS_P1;PMS_P2;Temp;Humidity;BMP_temperature;BMP_pressure;BME280_temperature;BME280_humidity;BME280_pressure;Samples;Min_cycle;Max_cycle;Signal;HPM_P1;HPM_P2
2022/03/17 00:01:29;;;;;;;19.17;10.43;;;;;;;6.75;43.54;102151.16;5028077;28;20279;-81
2022/03/17 00:03:54;;;;;;;16.45;9.02;;;;;;;6.40;44.38;102152.16;5024687;28;20044;-80
2022/03/17 00:06:20;;;;;;;19.15;9.00;;;;;;;6.57;43.86;102143.44;5039770;28;20128;-77
2022/03/17 00:08:46;;;;;;;17.42;10.15;;;;;;;6.87;43.39;102145.94;5020732;28;20053;-79
2022/03/17 00:11:12;;;;;;;24.15;9.73;;;;;;;6.55;43.78;102147.78;5040565;28;20469;-77
2022/03/17 00:13:37;;;;;;;15.50;9.35;;;;;;;6.38;44.23;102145.25;5036814;28;20096;-77
2022/03/17 00:16:04;;;;;;;17.52;9.55;;;;;;;6.19;45.01;102139.16;5039048;28;20038;-77
2022/03/17 00:18:29;;;;;;;15.73;8.68;;;;;;;6.24;44.70;102135.72;5018803;28;20060;-79
2022/03/17 00:20:55;;;;;;;19.45;9.57;;;;;;;6.58;44.23;102145.19;5038841;28;20031;-80
2022/03/17 00:23:22;;;;;;;17.65;8.73;;;;;;;6.59;44.11;102144.31;5042115;28;20051;-77
2022/03/17 00:25:48;;;;;;;19.30;9.60;;;;;;;6.46;44.48;102153.84;5037872;28;20044;-78
2022/03/17 00:28:13;;;;;;;20.15;9.10;;;;;;;6.35;44.74;102146.13;5024337;28;20044;-79
2022/03/17 00:30:39;;;;;;;24.45;9.57;;;;;;;6.31;44.91;102141.78;5026781;28;20505;-78
2022/03/17 00:33:05;;;;;;;19.35;9.27;;;;;;;6.30;44.81;102142.63;5037496;28;20558;-79
2022/03/17 00:35:36;;;;;;;17.52;8.60;;;;;;;6.08;45.36;102127.09;5044278;28;20051;-79
2022/03/17 00:38:07;;;;;;;15.50;9.27;;;;;;;6.26;45.26;102130.50;5021201;28;20441;-77
2022/03/17 00:40:37;;;;;;;17.77;8.48;;;;;;;5.95;45.58;102112.38;5024231;28;20195;-78
2022/03/17 00:43:04;;;;;;;17.70;9.82;;;;;;;5.98;45.75;102114.13;5037502;28;20040;-80
2022/03/17 00:45:30;;;;;;;19.67;9.98;;;;;;;5.98;45.75;102116.69;5021868;28;20078;-79
2022/03/17 00:47:55;;;;;;;16.52;9.15;;;;;;;6.06;45.41;102096.78;5041393;28;20037;-76
2022/03/17 00:50:21;;;;;;;23.35;11.00;;;;;;;5.94;45.55;102097.66;5024162;28;20537;-78
2022/03/17 00:52:47;;;;;;;15.30;8.77;;;;;;;6.39;44.77;102102.81;5036398;28;20048;-77
2022/03/17 00:55:13;;;;;;;19.77;9.35;;;;;;;5.85;46.19;102095.09;5028031;28;20123;-80
2022/03/17 00:57:39;;;;;;;18.05;9.02;;;;;;;5.89;45.91;102091.63;5020902;28;20542;-77
2022/03/17 01:00:07;;;;;;;20.65;10.15;;;;;;;5.95;45.68;102104.59;5022379;28;20388;-79
2022/03/17 01:02:33;;;;;;;18.48;9.13;;;;;;;5.66;46.52;102091.66;5042715;28;20044;-79
2022/03/17 01:04:58;;;;;;;17.80;8.88;;;;;;;6.25;45.41;102087.22;5019938;28;20037;-80
2022/03/17 01:07:24;;;;;;;15.45;8.57;;;;;;;6.18;45.18;102090.72;5020781;28;20637;-78
2022/03/17 01:09:49;;;;;;;18.63;10.18;;;;;;;5.90;45.94;102067.38;5024627;28;20055;-79
2022/03/17 01:12:15;;;;;;;19.88;9.80;;;;;;;5.79;46.51;102080.41;5038264;28;20280;-80
2022/03/17 01:14:41;;;;;;;14.93;8.63;;;;;;;5.90;45.96;102069.13;5019964;28;20111;-77
2022/03/17 01:17:07;;;;;;;17.48;9.00;;;;;;;5.88;46.36;102072.59;5021051;28;20541;-78
2022/03/17 01:19:33;;;;;;;21.50;9.55;;;;;;;5.67;46.46;102063.09;5037450;28;20090;-78
2022/03/17 01:21:59;;;;;;;22.73;9.82;;;;;;;6.16;45.66;102058.72;5024205;28;20036;-79
2022/03/17 01:24:24;;;;;;;20.85;9.73;;;;;;;5.64;46.86;102068.28;5037204;28;20132;-79
2022/03/17 01:26:50;;;;;;;16.42;9.05;;;;;;;5.70;46.59;102053.56;5019598;28;20817;-80
2022/03/17 01:29:16;;;;;;;18.48;9.52;;;;;;;5.74;46.49;102068.28;5038357;28;20072;-80
2022/03/17 01:31:41;;;;;;;21.27;8.82;;;;;;;5.83;46.48;102065.66;5019224;28;20080;-78
2022/03/17 01:34:07;;;;;;;18.25;8.65;;;;;;;5.94;46.01;102050.94;5020664;28;20489;-79
2022/03/17 01:36:32;;;;;;;16.38;9.00;;;;;;;6.01;46.20;102057.84;5023817;28;20577;-79
2022/03/17 01:38:58;;;;;;;21.92;10.10;;;;;;;6.09;45.53;102052.66;5024951;28;20053;-77
2022/03/17 01:41:23;;;;;;;18.73;10.10;;;;;;;5.81;46.66;102049.25;5038006;28;20033;-79
2022/03/17 01:43:49;;;;;;;19.90;9.05;;;;;;;5.73;46.70;102045.81;5034782;28;20053;-78
2022/03/17 01:46:15;;;;;;;17.58;8.32;;;;;;;5.95;46.32;102046.63;5025963;28;20214;-79
2022/03/17 01:48:42;;;;;;;16.15;8.70;;;;;;;5.87;46.10;102039.72;5033272;28;20048;-79
2022/03/17 01:51:08;;;;;;;20.27;10.55;;;;;;;5.66;46.89;102040.63;5044107;28;20144;-77
2022/03/17 01:53:33;;;;;;;20.48;9.38;;;;;;;5.78;46.53;102041.47;5034835;28;20048;-79
2022/03/17 01:55:59;;;;;;;18.02;9.43;;;;;;;5.77;46.55;102025.06;5021598;28;20333;-79
2022/03/17 01:58:25;;;;;;;15.57;9.02;;;;;;;5.58;47.09;102037.16;5036278;28;20719;-79
2022/03/17 02:00:51;;;;;;;22.58;9.27;;;;;;;5.82;46.50;102019.84;5037027;28;20041;-80
2022/03/17 02:03:17;;;;;;;19.05;9.23;;;;;;;6.03;46.23;102017.19;5019422;28;20045;-79
2022/03/17 02:05:46;;;;;;;16.83;9.05;;;;;;;5.69;46.81;102024.19;5036437;28;20043;-77
2022/03/17 02:08:15;;;;;;;22.17;9.50;;;;;;;5.83;46.44;102006.00;5019568;28;20044;-78
2022/03/17 02:13:25;;;;;;;16.40;8.95;;;;;;;5.64;47.25;102000.84;5039928;28;20040;-78
2022/03/17 02:15:52;;;;;;;14.70;7.68;;;;;;;5.42;47.82;102006.91;5024411;28;20609;-80
2022/03/17 02:18:18;;;;;;;16.23;10.00;;;;;;;5.67;47.07;101990.47;5020187;28;20076;-78
2022/03/17 02:20:44;;;;;;;20.88;10.02;;;;;;;5.65;47.06;101997.38;5020225;28;20051;-78
2022/03/17 02:25:57;;;;;;;19.98;9.02;;;;;;;5.50;47.31;101986.16;5042586;28;20339;-80
2022/03/17 02:28:27;;;;;;;18.02;8.90;;;;;;;5.66;47.13;101978.38;5036244;28;20032;-77
2022/03/17 02:30:54;;;;;;;19.65;9.85;;;;;;;5.81;46.81;101972.25;5036558;28;20123;-79
2022/03/17 02:33:19;;;;;;;16.10;9.73;;;;;;;5.60;47.11;101965.41;5035428;28;20772;-79
2022/03/17 02:35:47;;;;;;;20.95;10.48;;;;;;;5.52;47.36;101967.13;5018303;28;20167;-77
2022/03/17 02:38:14;;;;;;;19.40;9.93;;;;;;;5.70;46.93;101965.38;5036522;28;20060;-80
2022/03/17 02:40:41;;;;;;;18.73;10.25;;;;;;;5.35;47.36;101950.75;5040532;28;20068;-80
2022/03/17 02:43:07;;;;;;;19.52;9.65;;;;;;;5.40;47.46;101954.19;5037888;28;20292;-79
2022/03/17 02:45:34;;;;;;;17.05;9.55;;;;;;;5.38;47.61;101950.75;5042324;28;20060;-80
2022/03/17 02:48:01;;;;;;;17.58;10.05;;;;;;;5.61;47.21;101951.59;5022741;28;20187;-78
2022/03/17 02:50:27;;;;;;;21.88;10.35;;;;;;;5.51;47.56;101951.59;5038034;28;20067;-79
2022/03/17 02:52:52;;;;;;;24.88;10.27;;;;;;;5.62;47.06;101945.53;5017983;28;20041;-78
2022/03/17 02:55:18;;;;;;;20.98;9.73;;;;;;;5.47;47.72;101940.34;5036850;28;20063;-79
2022/03/17 02:57:45;;;;;;;19.98;9.93;;;;;;;5.52;47.21;101941.19;5041253;28;20037;-80
2022/03/17 03:00:12;;;;;;;21.05;10.38;;;;;;;5.52;47.48;101937.75;5026126;28;20440;-79
2022/03/17 03:02:39;;;;;;;19.38;9.95;;;;;;;5.60;47.48;101942.06;5037066;28;20553;-77
2022/03/17 03:05:06;;;;;;;24.13;11.18;;;;;;;5.66;46.81;101947.25;5025776;28;20047;-80
2022/03/17 03:07:31;;;;;;;26.58;11.55;;;;;;;5.71;46.79;101936.84;5042875;28;20053;-80
2022/03/17 03:09:58;;;;;;;25.13;11.40;;;;;;;5.53;47.67;101934.31;5020815;28;20043;-78
2022/03/17 03:12:24;;;;;;;22.20;11.32;;;;;;;5.24;47.87;101928.28;5022355;28;20490;-78
2022/03/17 03:14:50;;;;;;;19.52;11.88;;;;;;;5.39;47.65;101934.31;5041216;28;20029;-80
2022/03/17 03:17:16;;;;;;;25.58;10.65;;;;;;;5.63;47.27;101925.63;5035524;28;20029;-78
2022/03/17 03:19:42;;;;;;;19.13;10.70;;;;;;;5.71;46.90;101929.06;5035352;28;20068;-80
2022/03/17 03:22:08;;;;;;;23.08;11.07;;;;;;;5.46;47.88;101926.53;5042608;28;20122;-78
2022/03/17 03:24:34;;;;;;;18.45;10.60;;;;;;;5.85;46.91;101921.25;5019265;28;20037;-80
2022/03/17 03:26:59;;;;;;;23.27;10.50;;;;;;;5.75;47.37;101932.50;5020676;28;20036;-77
2022/03/17 03:29:28;;;;;;;17.50;10.07;;;;;;;6.03;46.93;101930.69;5037044;28;20070;-78
2022/03/17 03:31:59;;;;;;;22.33;9.98;;;;;;;5.62;47.45;101940.34;5016947;28;20029;-79
2022/03/17 03:34:26;;;;;;;27.13;13.32;;;;;;;5.74;47.64;101933.38;5023405;28;20042;-79
2022/03/17 03:39:36;;;;;;;20.77;10.95;;;;;;;5.30;48.50;101929.13;5037821;28;20057;-80
2022/03/17 03:42:04;;;;;;;24.02;11.65;;;;;;;5.47;48.40;101929.97;5026189;28;20029;-78
2022/03/17 03:44:29;;;;;;;17.90;10.85;;;;;;;5.54;48.34;101933.44;5039518;28;20025;-81
2022/03/17 03:46:55;;;;;;;21.90;11.80;;;;;;;5.75;47.91;101935.09;5038459;28;20032;-79
2022/03/17 03:49:21;;;;;;;24.33;10.63;;;;;;;5.63;48.13;101936.84;5040609;28;20076;-77
2022/03/17 03:51:46;;;;;;;18.92;10.35;;;;;;;5.90;47.55;101940.25;5038436;28;20498;-79
2022/03/17 03:54:13;;;;;;;22.45;11.32;;;;;;;5.98;47.07;101938.50;5038010;28;20233;-79
2022/03/17 03:56:44;;;;;;;30.63;13.02;;;;;;;6.26;46.42;101934.06;5037870;28;20044;-78
2022/03/17 03:59:23;;;;;;;22.33;12.05;;;;;;;6.33;46.00;101940.13;5007032;28;20076;-78
2022/03/17 04:01:51;;;;;;;18.40;11.25;;;;;;;6.39;45.87;101940.06;5040423;28;20039;-78
2022/03/17 04:04:18;;;;;;;24.00;12.65;;;;;;;6.22;46.11;101941.88;5022530;28;20057;-79
2022/03/17 04:06:48;;;;;;;23.08;11.90;;;;;;;6.04;46.58;101937.63;5038223;28;20074;-80
2022/03/17 04:09:15;;;;;;;24.60;13.45;;;;;;;6.59;45.48;101936.50;5039823;28;20837;-80
2022/03/17 04:11:41;;;;;;;20.98;12.30;;;;;;;6.43;45.65;101935.72;5038213;28;20418;-80
2022/03/17 04:14:08;;;;;;;24.05;11.63;;;;;;;6.43;45.29;101933.97;5039992;28;20041;-81
2022/03/17 04:16:34;;;;;;;18.83;11.02;;;;;;;6.46;45.69;101922.72;5039808;28;20067;-81
2022/03/17 04:19:00;;;;;;;20.45;10.85;;;;;;;6.55;45.23;101933.06;5022735;28;20163;-81
2022/03/17 04:21:26;;;;;;;25.30;11.93;;;;;;;6.50;45.36;101933.06;5042337;28;20294;-81
2022/03/17 04:23:52;;;;;;;21.52;12.13;;;;;;;6.79;44.71;101934.63;5038377;28;20049;-80
2022/03/17 04:26:17;;;;;;;22.90;12.50;;;;;;;6.80;44.77;101931.16;5022051;28;20458;-78
2022/03/17 04:28:43;;;;;;;20.83;11.05;;;;;;;6.68;45.00;101926.88;5038714;28;20071;-79
2022/03/17 04:31:09;;;;;;;22.52;13.38;;;;;;;6.84;44.64;101932.88;5021807;28;20453;-81
2022/03/17 04:33:35;;;;;;;21.92;11.93;;;;;;;6.95;44.62;101944.91;5041715;28;20421;-80
2022/03/17 04:36:05;;;;;;;25.30;11.32;;;;;;;6.69;45.05;101938.16;5023233;28;22453;-80
2022/03/17 04:38:32;;;;;;;22.85;12.15;;;;;;;6.64;45.14;101940.78;5037507;28;20132;-77
2022/03/17 04:40:58;;;;;;;22.35;11.63;;;;;;;6.77;44.77;101940.69;5005587;28;20451;-79
2022/03/17 04:43:24;;;;;;;20.15;11.38;;;;;;;6.88;44.59;101936.28;5040081;28;20084;-79
2022/03/17 04:45:50;;;;;;;19.55;11.98;;;;;;;6.55;45.30;101933.06;5042339;28;20024;-80
2022/03/17 04:48:15;;;;;;;24.48;11.90;;;;;;;7.05;44.25;101937.03;5037766;28;20045;-79
2022/03/17 04:50:41;;;;;;;22.13;11.93;;;;;;;7.09;44.49;101933.53;5042539;28;20031;-79
2022/03/17 04:55:51;;;;;;;19.95;11.85;;;;;;;6.92;44.70;101932.78;5040994;28;20036;-82
2022/03/17 04:58:17;;;;;;;22.08;12.25;;;;;;;6.74;45.52;101931.19;5041887;28;20041;-77
2022/03/17 05:00:43;;;;;;;25.38;12.93;;;;;;;6.52;46.14;101932.22;5040180;28;20492;-79
2022/03/17 05:03:09;;;;;;;22.05;11.90;;;;;;;6.60;45.98;101931.28;5041384;28;20048;-78
2022/03/17 05:05:34;;;;;;;19.40;12.13;;;;;;;6.97;45.19;101935.34;5038484;28;20457;-79
2022/03/17 05:08:00;;;;;;;25.65;13.13;;;;;;;6.85;45.06;101942.38;5021379;28;20044;-76
2022/03/17 05:10:25;;;;;;;21.85;12.18;;;;;;;6.95;45.13;101929.31;5044199;28;20035;-80
2022/03/17 05:12:51;;;;;;;22.15;11.80;;;;;;;6.72;45.75;101940.72;5037009;28;20115;-79
2022/03/17 05:15:17;;;;;;;22.10;12.52;;;;;;;6.69;46.46;101935.56;5039873;28;20029;-80
2022/03/17 05:17:42;;;;;;;22.83;12.27;;;;;;;6.44;47.04;101933.13;5037597;28;20059;-79
2022/03/17 05:20:12;;;;;;;22.33;12.10;;;;;;;6.43;47.12;101930.53;5023446;28;20303;-81
2022/03/17 05:22:39;;;;;;;23.30;12.98;;;;;;;6.34;47.41;101936.63;5037307;28;20819;-80
2022/03/17 05:25:08;;;;;;;23.98;12.82;;;;;;;6.64;46.72;101939.91;5020411;28;20427;-82
2022/03/17 05:27:42;;;;;;;22.13;12.77;;;;;;;6.47;47.14;101932.25;5037163;28;20049;-81
2022/03/17 05:30:14;;;;;;;23.48;12.02;;;;;;;6.63;46.68;101939.06;5036419;28;20128;-80
2022/03/17 05:32:41;;;;;;;22.13;12.13;;;;;;;6.88;45.89;101931.94;5020624;28;20126;-82
2022/03/17 05:35:08;;;;;;;26.38;12.90;;;;;;;6.98;45.67;101956.16;5020975;28;20028;-79
2022/03/17 05:37:37;;;;;;;22.63;12.50;;;;;;;7.07;45.54;101944.81;5020552;28;20053;-78
2022/03/17 05:40:05;;;;;;;27.35;14.23;;;;;;;6.78;45.82;101945.03;5022216;28;20056;-79
2022/03/17 05:42:31;;;;;;;26.45;13.13;;;;;;;6.86;45.86;101951.03;5022076;28;20407;-81
2022/03/17 05:44:56;;;;;;;22.75;12.75;;;;;;;7.06;45.37;101948.28;5020502;28;20122;-80
2022/03/17 05:47:23;;;;;;;22.52;13.15;;;;;;;7.12;44.97;101959.47;5038460;28;20055;-78
2022/03/17 05:49:49;;;;;;;25.02;14.00;;;;;;;7.08;45.07;101951.72;5036489;28;20083;-81
2022/03/17 05:52:15;;;;;;;23.35;13.80;;;;;;;6.74;45.80;101956.31;5040253;28;20567;-79
2022/03/17 05:54:41;;;;;;;23.75;13.13;;;;;;;7.16;44.94;101959.47;5034390;28;20020;-77
2022/03/17 05:57:09;;;;;;;25.08;12.32;;;;;;;7.26;44.80;101969.75;5005206;28;20059;-78
2022/03/17 05:59:39;;;;;;;25.80;13.93;;;;;;;7.41;44.72;101960.13;5039957;28;20028;-80
2022/03/17 06:02:05;;;;;;;24.63;12.35;;;;;;;7.12;45.08;101982.03;5035972;28;20122;-80
2022/03/17 06:04:31;;;;;;;25.77;12.35;;;;;;;7.13;44.97;101981.13;5036583;28;20457;-78
2022/03/17 06:06:57;;;;;;;24.70;13.80;;;;;;;7.54;44.21;101979.94;5036576;28;21944;-80
2022/03/17 06:09:23;;;;;;;25.83;13.10;;;;;;;7.12;45.14;101990.69;5015307;28;20299;-81
2022/03/17 06:11:48;;;;;;;23.02;12.82;;;;;;;7.51;44.14;101995.56;5015241;28;20094;-78
2022/03/17 06:14:14;;;;;;;26.58;13.82;;;;;;;7.16;45.21;102004.53;5019025;28;20056;-76
2022/03/17 06:16:40;;;;;;;25.73;13.93;;;;;;;7.24;45.05;102007.91;5036754;28;20037;-78
2022/03/17 06:19:05;;;;;;;27.40;13.00;;;;;;;7.38;44.61;102001.75;5036689;28;20048;-77
2022/03/17 06:21:31;;;;;;;28.05;13.55;;;;;;;6.98;45.93;102007.28;5042159;28;20509;-79
2022/03/17 06:23:56;;;;;;;25.17;13.32;;;;;;;7.09;45.68;102026.25;5018559;28;20433;-79
2022/03/17 06:26:22;;;;;;;26.05;13.15;;;;;;;7.27;45.62;102031.31;5036342;28;20039;-76
2022/03/17 06:28:48;;;;;;;26.33;14.02;;;;;;;6.98;46.48;102038.47;5035658;28;20557;-79
2022/03/17 06:31:13;;;;;;;23.58;13.90;;;;;;;6.58;48.41;102043.88;5042867;28;20036;-78
2022/03/17 06:33:39;;;;;;;25.85;13.52;;;;;;;6.64;48.82;102049.03;5036012;28;20055;-80
2022/03/17 06:36:05;;;;;;;27.77;15.02;;;;;;;6.21;51.09;102055.22;5036972;28;20029;-79
2022/03/17 06:38:30;;;;;;;26.92;14.52;;;;;;;6.29;52.05;102063.03;5021459;28;20343;-78
2022/03/17 06:40:56;;;;;;;26.98;14.38;;;;;;;6.46;52.58;102062.94;5036847;28;20029;-78
2022/03/17 06:43:21;;;;;;;29.85;15.60;;;;;;;6.36;53.43;102074.25;5038970;28;20083;-79
2022/03/17 06:45:47;;;;;;;33.47;16.15;;;;;;;6.19;54.21;102074.25;5037797;28;20032;-77
2022/03/17 06:48:12;;;;;;;35.50;16.77;;;;;;;6.02;55.89;102069.97;5035971;28;20589;-80
2022/03/17 06:50:38;;;;;;;33.60;16.95;;;;;;;5.98;56.36;102083.81;5037264;28;20459;-80
2022/03/17 06:53:03;;;;;;;28.40;16.08;;;;;;;6.02;56.36;102084.69;5021319;28;20062;-79
2022/03/17 06:55:33;;;;;;;35.22;17.95;;;;;;;5.83;57.12;102089.03;5021076;28;20028;-81
2022/03/17 06:57:59;;;;;;;33.42;17.55;;;;;;;5.84;57.55;102090.78;5003363;28;20048;-80
2022/03/17 07:00:25;;;;;;;33.75;16.42;;;;;;;5.83;57.55;102104.59;5022689;28;20157;-78
2022/03/17 07:02:51;;;;;;;36.08;18.80;;;;;;;6.22;56.71;102102.84;5035190;28;20135;-79
2022/03/17 07:05:16;;;;;;;36.97;17.83;;;;;;;6.25;56.67;102108.00;5042860;28;20100;-80
2022/03/17 07:07:43;;;;;;;37.97;16.85;;;;;;;5.77;58.35;102109.78;5039631;28;20049;-80
2022/03/17 07:10:09;;;;;;;36.30;17.38;;;;;;;5.96;57.81;102108.91;5023654;28;20090;-80
2022/03/17 07:12:36;;;;;;;40.45;19.20;;;;;;;6.17;57.39;102110.63;5040319;28;20122;-80
2022/03/17 07:15:03;;;;;;;41.72;18.83;;;;;;;5.87;58.70;102127.94;5042528;28;20036;-76
2022/03/17 07:17:35;;;;;;;38.63;18.80;;;;;;;5.67;59.89;102129.66;5024418;28;20045;-80
2022/03/17 07:20:04;;;;;;;36.53;18.23;;;;;;;5.76;59.64;102134.88;5040116;28;20091;-78
2022/03/17 07:22:29;;;;;;;40.40;18.65;;;;;;;5.52;60.56;102168.56;5025058;28;20123;-79
2022/03/17 07:24:55;;;;;;;31.17;15.82;;;;;;;5.08;61.38;102179.66;5043804;28;20502;-78
2022/03/17 07:27:24;;;;;;;32.53;15.05;;;;;;;5.86;59.57;102198.03;5047606;28;20067;-78
2022/03/17 07:29:51;;;;;;;19.60;10.15;;;;;;;5.55;59.34;102208.34;5045754;28;20479;-79
2022/03/17 07:32:18;;;;;;;17.30;9.40;;;;;;;4.67;61.77;102208.78;5040741;28;20021;-78
2022/03/17 07:34:44;;;;;;;16.08;7.75;;;;;;;4.72;61.30;102222.63;5025284;28;20036;-80
2022/03/17 07:37:10;;;;;;;19.85;8.30;;;;;;;4.96;60.08;102232.31;5022035;28;20660;-78
2022/03/17 07:39:35;;;;;;;16.63;6.75;;;;;;;5.01;60.09;102238.38;5026182;28;20032;-79
2022/03/17 07:42:04;;;;;;;18.23;6.75;;;;;;;4.57;60.52;102245.00;5041692;28;20514;-79
2022/03/17 07:44:49;;;;;;;15.20;5.70;;;;;;;4.11;61.70;102254.97;5038270;28;20033;-78
2022/03/17 07:47:33;;;;;;;16.08;4.55;;;;;;;4.79;59.84;102255.50;5040195;28;20051;-77
2022/03/17 07:50:01;;;;;;;8.85;3.88;;;;;;;4.70;59.41;102268.38;5038857;28;20041;-80
2022/03/17 07:52:27;;;;;;;16.70;3.20;;;;;;;4.41;59.96;102267.31;5023095;28;20499;-82
2022/03/17 07:54:52;;;;;;;12.48;3.88;;;;;;;4.64;58.42;102271.81;5024759;28;20055;-81
2022/03/17 07:57:19;;;;;;;11.18;3.13;;;;;;;4.78;58.71;102271.88;5038283;28;20036;-82
2022/03/17 07:59:44;;;;;;;18.70;3.28;;;;;;;4.77;57.97;102273.63;5021239;28;20064;-79
2022/03/17 08:02:10;;;;;;;11.40;2.17;;;;;;;4.89;57.83;102280.63;5022452;28;20032;-80
2022/03/17 08:04:37;;;;;;;14.30;3.25;;;;;;;5.21;56.74;102285.13;5024387;28;20076;-81
2022/03/17 08:07:03;;;;;;;12.13;1.50;;;;;;;4.88;57.26;102290.97;5022399;28;20518;-83
2022/03/17 08:09:29;;;;;;;8.02;1.80;;;;;;;5.30;56.21;102289.47;5042356;28;20391;-80
2022/03/17 08:11:56;;;;;;;9.52;1.88;;;;;;;4.47;57.84;102300.13;5049213;28;20054;-81
2022/03/17 08:14:22;;;;;;;3.58;0.82;;;;;;;4.73;56.51;102305.53;5023359;28;20063;-80
2022/03/17 08:16:48;;;;;;;6.45;1.75;;;;;;;4.81;56.90;102306.47;5017336;28;20461;-79
2022/03/17 08:19:14;;;;;;;9.70;1.70;;;;;;;5.30;55.89;102323.19;5030343;28;20131;-79
2022/03/17 08:21:41;;;;;;;7.18;0.98;;;;;;;5.10;55.69;102323.97;5012804;28;20057;-77
2022/03/17 08:24:07;;;;;;;7.95;0.82;;;;;;;5.18;54.95;102327.44;5030979;28;20602;-80
2022/03/17 08:26:33;;;;;;;3.30;0.35;;;;;;;5.11;54.27;102336.06;5025389;28;20037;-79
2022/03/17 08:29:00;;;;;;;5.85;0.57;;;;;;;5.34;53.70;102336.19;5041894;28;20462;-82
2022/03/17 08:31:30;;;;;;;9.45;0.40;;;;;;;4.99;54.30;102333.41;5042983;28;20067;-78
2022/03/17 08:33:58;;;;;;;7.88;0.40;;;;;;;5.49;53.41;102343.16;5036826;28;20056;-78
2022/03/17 08:36:24;;;;;;;5.75;0.50;;;;;;;5.70;52.71;102357.94;5036825;28;20099;-80
2022/03/17 08:38:51;;;;;;;4.63;0.60;;;;;;;5.77;52.14;102358.84;5017906;28;20134;-81
2022/03/17 08:41:18;;;;;;;9.82;0.80;;;;;;;6.07;51.52;102358.09;5038651;28;20137;-79
2022/03/17 08:43:43;;;;;;;3.65;0.20;;;;;;;5.35;52.52;102373.38;5019930;28;20033;-77
2022/03/17 08:51:37;;;;;;;2.58;0.30;;;;;;;5.27;52.77;102393.19;5023718;28;20036;-78
2022/03/17 08:54:03;;;;;;;3.28;0.63;;;;;;;5.41;52.41;102389.81;5015875;28;20037;-80
2022/03/17 08:56:28;;;;;;;5.57;0.40;;;;;;;6.17;50.75;102388.41;5020894;28;20630;-80
2022/03/17 08:58:54;;;;;;;7.20;0.50;;;;;;;6.59;49.81;102394.56;5019015;28;20152;-78
2022/03/17 09:01:20;;;;;;;5.75;0.40;;;;;;;6.86;49.10;102406.72;5026706;28;20067;-79
2022/03/17 09:03:45;;;;;;;5.05;0.80;;;;;;;5.83;50.71;102416.81;5023924;28;20651;-80
2022/03/17 09:06:12;;;;;;;7.47;0.38;;;;;;;5.23;52.47;102419.09;5018919;28;20058;-78
2022/03/17 09:08:41;;;;;;;6.53;0.20;;;;;;;4.25;54.60;102428.50;5018981;28;20060;-78
2022/03/17 09:11:07;;;;;;;7.90;0.60;;;;;;;5.03;53.17;102431.91;5017881;28;20043;-80
2022/03/17 09:13:34;;;;;;;6.03;0.60;;;;;;;5.40;52.35;102446.84;5034519;28;20481;-79
2022/03/17 09:15:59;;;;;;;6.45;1.08;;;;;;;5.38;52.07;102440.78;5023483;28;20033;-76
2022/03/17 09:18:27;;;;;;;5.47;0.47;;;;;;;5.28;51.44;102445.06;5018075;28;20045;-77
2022/03/17 09:20:52;;;;;;;9.43;0.50;;;;;;;6.17;50.13;102449.84;5037869;28;20044;-82
2022/03/17 09:23:18;;;;;;;7.85;0.50;;;;;;;5.34;51.96;102454.59;5042387;28;20056;-79
2022/03/17 09:25:45;;;;;;;5.72;0.85;;;;;;;5.95;51.22;102461.84;5042297;28;20059;-80
2022/03/17 09:28:11;;;;;;;6.03;0.25;;;;;;;5.11;51.44;102469.97;5038662;28;20040;-80
2022/03/17 09:30:37;;;;;;;13.05;0.50;;;;;;;5.52;51.53;102474.59;5041879;28;20035;-77
2022/03/17 09:33:05;;;;;;;2.90;0.52;;;;;;;6.30;49.19;102485.41;5021125;28;20033;-79
2022/03/17 09:35:31;;;;;;;6.45;0.70;;;;;;;6.14;49.78;102486.19;5022515;28;20595;-77
2022/03/17 09:37:57;;;;;;;14.68;2.70;;;;;;;5.50;51.07;102495.31;5018590;28;21325;-78
2022/03/17 09:40:23;;;;;;;6.65;0.35;;;;;;;5.22;51.48;102489.94;5037218;28;20120;-79
2022/03/17 09:42:49;;;;;;;5.70;0.43;;;;;;;5.19;53.00;102505.47;5017602;28;20041;-78
2022/03/17 09:45:15;;;;;;;5.35;0.77;;;;;;;5.29;53.03;102510.72;5021019;28;20036;-79
2022/03/17 09:47:44;;;;;;;4.53;1.20;;;;;;;5.28;53.50;102528.00;5003952;28;20044;-78
2022/03/17 09:50:14;;;;;;;5.88;0.40;;;;;;;4.81;55.09;102529.25;5019651;28;20048;-77
2022/03/17 09:52:42;;;;;;;4.65;0.70;;;;;;;5.24;53.49;102532.28;5002481;28;20119;-78
2022/03/17 09:55:10;;;;;;;7.93;1.23;;;;;;;5.01;53.63;102531.19;5037876;28;20033;-79
2022/03/17 09:57:42;;;;;;;8.05;0.85;;;;;;;5.35;52.68;102541.91;5045024;28;20052;-79
2022/03/17 10:00:11;;;;;;;10.88;1.25;;;;;;;5.34;52.09;102550.50;5040885;28;20436;-78
2022/03/17 10:02:37;;;;;;;14.45;0.47;;;;;;;5.36;51.08;102560.03;5045888;28;20048;-80
2022/03/17 10:05:03;;;;;;;14.68;0.73;;;;;;;5.37;51.50;102566.09;5025762;28;20115;-80
2022/03/17 10:07:29;;;;;;;13.63;0.90;;;;;;;4.99;52.07;102574.41;5045227;28;20061;-80
2022/03/17 10:09:55;;;;;;;10.07;0.80;;;;;;;4.98;51.42;102572.63;5059185;28;20120;-82
2022/03/17 10:12:21;;;;;;;10.25;1.80;;;;;;;5.36;51.01;102583.38;5063430;28;20159;-79
2022/03/17 10:14:52;;;;;;;9.77;0.75;;;;;;;5.52;49.77;102586.09;5042842;28;20036;-80
2022/03/17 10:17:37;;;;;;;7.30;0.98;;;;;;;5.71;49.38;102582.81;5040150;28;20045;-79
2022/03/17 10:20:25;;;;;;;11.85;1.63;;;;;;;6.27;48.05;102584.06;5019700;28;20036;-80
2022/03/17 10:22:56;;;;;;;6.82;1.45;;;;;;;5.63;48.88;102600.91;5035115;28;20680;-78
2022/03/17 10:25:24;;;;;;;6.75;1.17;;;;;;;5.32;50.09;102617.03;5021609;28;20032;-80
2022/03/17 10:27:50;;;;;;;8.50;1.20;;;;;;;5.80;49.69;102621.81;5002229;28;20067;-79
2022/03/17 10:30:30;;;;;;;3.95;0.25;;;;;;;5.66;50.13;102632.06;5005135;28;20028;-77
2022/03/17 10:33:20;;;;;;;7.13;0.43;;;;;;;5.34;51.37;102642.13;5036169;28;20044;-79
2022/03/17 10:35:48;;;;;;;10.70;1.33;;;;;;;6.13;49.12;102651.47;5035301;28;20096;-77
2022/03/17 10:38:16;;;;;;;6.82;0.68;;;;;;;5.77;48.61;102654.63;5043890;28;20529;-78
2022/03/17 10:40:43;;;;;;;11.25;0.80;;;;;;;5.84;48.13;102651.25;5037173;28;20048;-76
2022/03/17 10:43:20;;;;;;;7.65;0.60;;;;;;;5.67;47.80;102657.16;5024399;28;20040;-78
2022/03/17 10:45:46;;;;;;;5.03;0.25;;;;;;;5.79;47.81;102677.16;5043810;28;20037;-84
2022/03/17 10:48:12;;;;;;;4.00;0.60;;;;;;;5.93;47.81;102690.25;5041121;28;20128;-77
2022/03/17 10:50:40;;;;;;;10.82;0.90;;;;;;;5.09;49.41;102686.78;5024652;28;20490;-77
2022/03/17 10:53:06;;;;;;;4.35;0.30;;;;;;;5.80;48.66;102686.69;5006602;28;20044;-81
2022/03/17 10:55:34;;;;;;;7.38;0.73;;;;;;;5.50;48.65;102689.84;5025795;28;20060;-80
2022/03/17 10:58:16;;;;;;;12.48;1.55;;;;;;;5.77;47.93;102690.97;5039136;28;20068;-80
2022/03/17 11:00:48;;;;;;;11.40;0.57;;;;;;;6.06;46.61;102704.19;5028962;28;20047;-79
2022/03/17 11:03:15;;;;;;;10.80;0.70;;;;;;;5.61;46.95;102711.59;5041027;28;20040;-80
2022/03/17 11:05:40;;;;;;;12.38;1.23;;;;;;;6.25;45.19;102726.00;5024733;28;20052;-77
2022/03/17 11:08:10;;;;;;;10.13;0.40;;;;;;;6.02;44.83;102729.25;5040746;28;20253;-78
2022/03/17 11:10:36;;;;;;;4.93;0.40;;;;;;;5.54;46.10;102729.66;5024045;28;20086;-75
2022/03/17 11:13:11;;;;;;;3.35;0.30;;;;;;;6.32;45.14;102733.00;5022515;28;20041;-79
2022/03/17 11:15:40;;;;;;;6.63;0.40;;;;;;;6.28;45.37;102747.69;5023938;28;20151;-78
2022/03/17 11:18:10;;;;;;;12.70;0.80;;;;;;;6.54;44.32;102749.59;5049620;28;20098;-78
2022/03/17 11:20:36;;;;;;;12.18;0.50;;;;;;;6.39;44.51;102755.56;5041173;28;20036;-78
2022/03/17 11:23:15;;;;;;;13.40;1.02;;;;;;;6.57;43.32;102759.16;5047432;28;20059;-77
2022/03/17 11:25:54;;;;;;;12.40;0.90;;;;;;;6.59;44.10;102757.44;5028226;28;20043;-76
2022/03/17 11:28:40;;;;;;;5.55;0.90;;;;;;;7.14;43.09;102760.34;5020675;28;20502;-79
2022/03/17 11:31:09;;;;;;;10.40;1.27;;;;;;;6.95;43.32;102766.31;5007326;28;20040;-80
2022/03/17 11:33:38;;;;;;;4.40;0.65;;;;;;;7.33;42.62;102763.88;5023165;28;20493;-81
2022/03/17 11:36:07;;;;;;;7.53;0.60;;;;;;;8.54;40.58;102760.63;5043279;28;20520;-81
2022/03/17 11:38:32;;;;;;;13.60;1.63;;;;;;;8.22;40.75;102760.63;5049750;28;20113;-78
2022/03/17 11:41:04;;;;;;;6.85;0.98;;;;;;;8.13;40.94;102771.91;5020060;28;20171;-81